»·PEaware :: UAL1858 KSFO-KDEN

UAL1858 :: KSFO-KDEN

FLIGHT INFORMATION

Flight Status: Arrived
Operator:
United Airlines
More flights by this operator :: More flights under this callsign
Pilot: Drew L. (13237)
Aircraft: Unknown
(B77L)
More flights by this aircraft type
Origin: KSFO San Francisco Intl
United States
Destination: KDEN Denver Intl
United States
More flights between these airports :: More routes between these airports
Route: TRUKN2 SYRAH Q128 JSICA MLF J28 HVE WOLLF TELLR2
File this flight plan on PilotEdge
Remarks: PBN / A1B1C1D1L1O1S2 DOF / 180316 REG / N712SB EET / KZLC0030 KZDV0108 OPR / UAL PER / D RMK / TCAS SIMBRIEF
Altitude:
(Current/Filed)
37,000ft
Speed:
(Current/Filed)
469kts
Departed: 16-Mar-18 02:14 PM
Arrived: 16-Mar-18 04:08 PM
Distance/Time
Traveled:
838nm/1:54
Distance/Time
To Go:
Arrived

Flight Plot

Page will automatically refresh every two minutes.


Map Options




Map Legend


Flown Route
Filed Route
Departure Airport
Arrival Airport
Navaid (VOR, NDB)
Fix

Horizontal Profiles

Position Reports

Time Latitude Longitude Heading Altitude Ground
Speed
16-Mar-18 13:37 38.664612 -99.299549 182 15077ft 431kts
16-Mar-18 13:39 37.616771 -122.382089 24 26ft 0kts
16-Mar-18 13:40 37.616771 -122.382089 24 26ft 0kts
16-Mar-18 13:41 37.616771 -122.382089 24 26ft 0kts
16-Mar-18 13:42 37.616771 -122.382089 24 26ft 0kts
16-Mar-18 13:43 37.616771 -122.382089 24 26ft 0kts
16-Mar-18 13:44 37.616771 -122.382089 24 26ft 0kts
16-Mar-18 13:45 37.616771 -122.382089 24 26ft 0kts
16-Mar-18 13:46 37.616771 -122.382089 24 26ft 0kts
16-Mar-18 13:47 37.616771 -122.382089 24 26ft 0kts
16-Mar-18 13:48 37.616771 -122.382089 24 26ft 0kts
16-Mar-18 13:49 37.616771 -122.382089 24 26ft 0kts
16-Mar-18 13:50 37.616771 -122.382089 24 26ft 0kts
16-Mar-18 13:51 37.616771 -122.382089 24 26ft 0kts
16-Mar-18 13:52 37.616771 -122.382089 24 26ft 0kts
16-Mar-18 13:53 37.616771 -122.382089 24 26ft 0kts
16-Mar-18 13:54 37.616771 -122.382089 24 26ft 0kts
16-Mar-18 13:55 37.616771 -122.382089 24 26ft 0kts
16-Mar-18 13:56 37.616771 -122.382089 24 26ft 0kts
16-Mar-18 13:57 37.616771 -122.382089 24 26ft 0kts
16-Mar-18 13:58 37.616283 -122.382370 24 26ft 2kts
16-Mar-18 13:59 37.616174 -122.382432 24 26ft 0kts
16-Mar-18 14:00 37.616176 -122.382431 24 26ft 0kts
16-Mar-18 14:01 37.616176 -122.382431 24 26ft 0kts
16-Mar-18 14:02 37.616252 -122.382372 36 26ft 7kts
16-Mar-18 14:03 37.616201 -122.381574 126 26ft 0kts
16-Mar-18 14:04 37.616201 -122.381573 126 26ft 0kts
16-Mar-18 14:05 37.616202 -122.379996 31 26ft 0kts
16-Mar-18 14:06 37.616528 -122.379742 29 26ft 0kts
16-Mar-18 14:07 37.616716 -122.379483 64 26ft 0kts
16-Mar-18 14:08 37.618264 -122.379945 332 26ft 15kts
16-Mar-18 14:09 37.618218 -122.378429 111 26ft 0kts
16-Mar-18 14:10 37.616049 -122.372320 110 26ft 24kts
16-Mar-18 14:11 37.612643 -122.365268 118 26ft 20kts
16-Mar-18 14:12 37.611186 -122.358783 26 26ft 18kts
16-Mar-18 14:13 37.616810 -122.370502 296 30ft 142kts
16-Mar-18 14:14 37.651813 -122.397859 24 4557ft 184kts
16-Mar-18 14:15 37.677273 -122.330513 69 7363ft 266kts
16-Mar-18 14:16 37.703542 -122.231732 72 11077ft 320kts
16-Mar-18 14:17 37.734610 -122.111693 72 14078ft 399kts
16-Mar-18 14:18 37.771068 -121.970468 71 17686ft 446kts
16-Mar-18 14:19 37.812236 -121.815557 65 21066ft 482kts
16-Mar-18 14:20 37.895872 -121.677008 44 22973ft 509kts
16-Mar-18 14:21 37.985731 -121.537356 62 25316ft 528kts
16-Mar-18 14:22 37.997184 -121.352042 98 28253ft 545kts
16-Mar-18 14:23 37.991586 -121.155503 92 30912ft 569kts
16-Mar-18 14:24 38.011529 -120.958110 79 34335ft 558kts
16-Mar-18 14:25 38.042186 -120.766694 79 36814ft 554kts
16-Mar-18 14:26 38.071664 -120.575757 79 36954ft 551kts
16-Mar-18 14:27 38.100835 -120.383939 80 36958ft 553kts
16-Mar-18 14:28 38.129361 -120.192145 80 36951ft 554kts
16-Mar-18 14:29 38.157710 -119.999110 80 36923ft 555kts
16-Mar-18 14:30 38.185668 -119.806433 80 36880ft 555kts
16-Mar-18 14:31 38.213267 -119.613923 80 36835ft 553kts
16-Mar-18 14:32 38.240539 -119.421344 80 36817ft 551kts
16-Mar-18 14:33 38.267311 -119.229963 81 36790ft 549kts
16-Mar-18 14:34 38.293732 -119.038788 81 36764ft 546kts
16-Mar-18 14:35 38.319637 -118.848910 81 36739ft 544kts
16-Mar-18 14:36 38.345132 -118.659665 81 36719ft 541kts
16-Mar-18 14:37 38.370334 -118.470233 82 36716ft 541kts
16-Mar-18 14:38 38.395152 -118.281269 82 36724ft 541kts
16-Mar-18 14:39 38.419690 -118.092002 82 36735ft 540kts
16-Mar-18 14:40 38.443830 -117.903348 82 36740ft 540kts
16-Mar-18 14:41 38.467695 -117.714371 82 36754ft 540kts
16-Mar-18 14:42 38.491661 -117.524713 83 36769ft 540kts
16-Mar-18 14:43 38.514631 -117.335373 83 36775ft 540kts
16-Mar-18 14:44 38.520386 -117.144653 96 36784ft 535kts
16-Mar-18 14:45 38.513313 -116.954751 95 36790ft 537kts
16-Mar-18 14:46 38.508812 -116.764085 94 36790ft 538kts
16-Mar-18 14:47 38.504494 -116.572384 95 36790ft 540kts
16-Mar-18 14:48 38.499533 -116.380961 95 36798ft 540kts
16-Mar-18 14:49 38.494205 -116.189314 95 36796ft 541kts
16-Mar-18 14:50 38.488549 -115.996830 95 36793ft 542kts
16-Mar-18 14:51 38.482571 -115.804560 95 36797ft 543kts
16-Mar-18 14:52 38.476259 -115.611557 95 36799ft 543kts
16-Mar-18 14:53 38.469662 -115.419468 95 36801ft 542kts
16-Mar-18 14:54 38.462753 -115.227465 95 36810ft 542kts
16-Mar-18 14:55 38.455503 -115.034753 96 36817ft 543kts
16-Mar-18 14:56 38.447954 -114.842587 96 36812ft 542kts
16-Mar-18 14:57 38.440087 -114.650120 96 36827ft 542kts
16-Mar-18 14:58 38.431947 -114.458326 96 36833ft 542kts
16-Mar-18 14:59 38.423409 -114.265632 96 36833ft 543kts
16-Mar-18 15:00 38.414609 -114.073651 96 36850ft 543kts
16-Mar-18 15:01 38.405470 -113.881159 96 36857ft 543kts
16-Mar-18 15:02 38.396037 -113.689136 96 36858ft 543kts
16-Mar-18 15:03 38.386302 -113.497335 97 36861ft 543kts
16-Mar-18 15:04 38.376612 -113.304982 97 36845ft 542kts
16-Mar-18 15:05 38.365974 -113.113524 97 36840ft 543kts
16-Mar-18 15:06 38.360881 -112.920840 89 36841ft 545kts
16-Mar-18 15:07 38.369033 -112.728099 89 36848ft 545kts
16-Mar-18 15:08 38.375048 -112.535320 88 36861ft 545kts
16-Mar-18 15:09 38.381337 -112.342047 89 36883ft 544kts
16-Mar-18 15:10 38.386737 -112.149236 89 36899ft 545kts
16-Mar-18 15:11 38.391780 -111.955566 89 36917ft 545kts
16-Mar-18 15:12 38.396488 -111.762841 89 36930ft 545kts
16-Mar-18 15:13 38.400897 -111.570109 89 36936ft 544kts
16-Mar-18 15:14 38.404965 -111.377121 90 36948ft 543kts
16-Mar-18 15:15 38.408681 -111.186022 90 36937ft 533kts
16-Mar-18 15:16 38.412553 -110.993668 90 36958ft 550kts
16-Mar-18 15:17 38.415381 -110.800129 90 36952ft 539kts
16-Mar-18 15:18 38.418786 -110.609941 89 36943ft 541kts
16-Mar-18 15:19 38.422162 -110.448767 89 36954ft 544kts
16-Mar-18 15:20 38.426717 -110.226708 88 36950ft 538kts
16-Mar-18 15:21 38.430360 -110.065723 88 36948ft 546kts
16-Mar-18 15:22 38.434444 -109.843972 89 36940ft 542kts
16-Mar-18 15:23 38.437547 -109.651699 89 36957ft 537kts
16-Mar-18 15:24 38.439887 -109.493197 89 36955ft 537kts
16-Mar-18 15:25 38.442844 -109.269485 89 36994ft 542kts
16-Mar-18 15:26 38.444617 -109.109337 89 37000ft 536kts
16-Mar-18 15:27 38.446795 -108.887842 89 37011ft 536kts
16-Mar-18 15:28 38.448142 -108.729425 89 37021ft 533kts
16-Mar-18 15:29 38.449544 -108.507530 90 37012ft 540kts
16-Mar-18 15:30 38.450383 -108.348901 90 37019ft 535kts
16-Mar-18 15:31 38.451041 -108.159287 90 36998ft 538kts
16-Mar-18 15:32 38.451696 -107.968556 89 37000ft 528kts
16-Mar-18 15:33 38.451678 -107.781684 90 36995ft 531kts
16-Mar-18 15:34 38.456343 -107.592016 78 37010ft 541kts
16-Mar-18 15:35 38.523693 -107.427574 53 37006ft 516kts
16-Mar-18 15:36 38.597258 -107.270206 58 36997ft 521kts
16-Mar-18 15:37 38.669711 -107.107362 57 36997ft 524kts
16-Mar-18 15:38 38.741788 -106.945687 57 36850ft 526kts
16-Mar-18 15:39 38.812114 -106.785438 56 34777ft 514kts
16-Mar-18 15:40 38.882749 -106.625844 54 32393ft 509kts
16-Mar-18 15:41 38.954547 -106.471982 53 30422ft 496kts
16-Mar-18 15:42 39.024206 -106.320497 53 28380ft 486kts
16-Mar-18 15:43 39.091474 -106.171819 53 26329ft 475kts
16-Mar-18 15:44 39.156339 -106.025866 53 24302ft 464kts
16-Mar-18 15:45 39.219650 -105.883158 54 22301ft 451kts
16-Mar-18 15:46 39.280461 -105.744030 54 20271ft 440kts
16-Mar-18 15:47 39.339742 -105.608603 54 18645ft 418kts
16-Mar-18 15:48 39.389913 -105.480181 70 17795ft 390kts
16-Mar-18 15:49 39.404262 -105.342109 73 16246ft 382kts
16-Mar-18 15:50 39.447352 -105.220906 59 15092ft 359kts
16-Mar-18 15:51 39.488767 -105.112445 58 14890ft 319kts
16-Mar-18 15:52 39.527410 -105.010554 59 14560ft 310kts
16-Mar-18 15:53 39.565185 -104.911006 58 13443ft 303kts
16-Mar-18 15:54 39.601186 -104.815215 58 12869ft 287kts
16-Mar-18 15:55 39.635368 -104.722653 58 12860ft 284kts
16-Mar-18 15:56 39.669500 -104.629969 58 12575ft 286kts
16-Mar-18 15:57 39.702981 -104.538115 58 11349ft 273kts
16-Mar-18 15:58 39.733620 -104.453581 58 10784ft 251kts
16-Mar-18 15:59 39.763925 -104.372652 49 9837ft 243kts
16-Mar-18 16:00 39.820744 -104.360303 347 8939ft 211kts
16-Mar-18 16:01 39.869469 -104.393143 307 8182ft 182kts
16-Mar-18 16:02 39.876273 -104.451857 271 7684ft 152kts
16-Mar-18 16:03 39.876384 -104.499357 272 7228ft 118kts
16-Mar-18 16:04 39.876692 -104.543262 273 6577ft 123kts
16-Mar-18 16:05 39.876980 -104.589047 274 5929ft 125kts
16-Mar-18 16:06 39.877265 -104.634050 278 5447ft 125kts
16-Mar-18 16:07 39.876478 -104.651813 242 5444ft 19kts
16-Mar-18 16:08 39.875876 -104.655733 270 5444ft 0kts
16-Mar-18 16:09 39.875876 -104.655734 270 5444ft 0kts
16-Mar-18 16:10 39.875910 -104.661094 270 5444ft 11kts
16-Mar-18 16:11 39.869661 -104.662189 180 5444ft 35kts
16-Mar-18 16:12 39.861033 -104.662342 180 5444ft 37kts
16-Mar-18 16:13 39.855835 -104.663057 264 5444ft 11kts
16-Mar-18 16:14 39.856984 -104.668469 358 5444ft 17kts

Navigation Log

Ident Type
1. KSFO Airport
2. JSICA Fix
3. MLF Navaid
4. HVE Navaid
5. KDEN Airport